createdAt,value
2019-03-01T00:01:26.899Z,7.63
2019-03-01T00:04:11.752Z,7.68
2019-03-01T00:06:56.526Z,7.66
2019-03-01T00:09:50.699Z,7.69
2019-03-01T00:12:29.518Z,7.71
2019-03-01T00:15:25.038Z,7.69
2019-03-01T00:18:25.269Z,7.62
2019-03-01T00:21:20.779Z,7.67
2019-03-01T00:24:11.589Z,7.69
2019-03-01T00:26:53.377Z,7.72
2019-03-01T00:29:50.226Z,7.73
2019-03-01T00:32:47.183Z,7.73
2019-03-01T00:35:42.031Z,7.78
2019-03-01T00:38:21.012Z,7.67
2019-03-01T00:41:21.122Z,7.51
2019-03-01T00:44:18.082Z,7.49
2019-03-01T00:46:53.934Z,7.40
2019-03-01T00:49:31.319Z,7.34
2019-03-01T00:52:08.002Z,7.37
2019-03-01T00:54:43.783Z,7.37
2019-03-01T00:57:19.595Z,7.36
2019-03-01T00:59:55.450Z,7.33
2019-03-01T01:02:31.516Z,7.23
2019-03-01T01:05:07.558Z,7.25
2019-03-01T01:07:43.311Z,7.25
2019-03-01T01:10:19.174Z,7.25
2019-03-01T01:12:55.028Z,7.26
2019-03-01T01:15:30.876Z,7.28
2019-03-01T01:18:40.540Z,7.26
2019-03-01T01:21:37.983Z,7.20
2019-03-01T01:24:13.834Z,7.14
2019-03-01T01:26:49.694Z,7.11
2019-03-01T01:29:25.583Z,7.07
2019-03-01T01:32:01.448Z,7.09
2019-03-01T01:34:37.563Z,7.10
2019-03-01T01:37:13.830Z,7.02
2019-03-01T01:39:49.684Z,7.03
2019-03-01T01:42:25.531Z,6.95
2019-03-01T01:45:01.380Z,6.94
2019-03-01T01:47:37.244Z,6.90
2019-03-01T01:50:13.308Z,6.93
2019-03-01T01:52:49.153Z,6.90
2019-03-01T01:55:25.005Z,6.87
2019-03-01T01:58:00.863Z,6.88
2019-03-01T02:00:36.719Z,6.87
2019-03-01T02:03:13.486Z,6.87
2019-03-01T02:05:49.353Z,6.94
2019-03-01T02:08:25.197Z,6.94
2019-03-01T02:11:01.057Z,6.95
2019-03-01T02:13:38.077Z,6.97
2019-03-01T02:16:13.987Z,6.80
2019-03-01T02:18:57.435Z,6.88
2019-03-01T02:21:27.443Z,6.80
2019-03-01T02:24:03.302Z,6.80
2019-03-01T02:26:39.150Z,6.77
2019-03-01T02:29:15.009Z,6.73
2019-03-01T02:31:52.978Z,6.68
2019-03-01T02:34:28.866Z,6.64
2019-03-01T02:37:06.453Z,6.59
2019-03-01T02:39:42.304Z,6.54
2019-03-01T02:42:18.152Z,6.54
2019-03-01T02:44:54.025Z,6.46
2019-03-01T02:47:29.864Z,6.46
2019-03-01T02:50:08.203Z,6.46
2019-03-01T02:52:44.044Z,6.42
2019-03-01T02:55:23.112Z,6.42
2019-03-01T02:57:59.026Z,6.35
2019-03-01T03:00:35.081Z,6.31
2019-03-01T03:03:10.930Z,6.31
2019-03-01T03:06:03.586Z,6.30
2019-03-01T03:08:39.553Z,6.27
2019-03-01T03:11:15.394Z,6.28
2019-03-01T03:13:51.249Z,6.26
2019-03-01T03:16:26.988Z,6.21
2019-03-01T03:19:02.854Z,6.20
2019-03-01T03:21:38.712Z,6.14
2019-03-01T03:24:14.558Z,6.11
2019-03-01T03:26:50.425Z,6.11
2019-03-01T03:29:26.274Z,6.12
2019-03-01T03:32:02.117Z,6.08
2019-03-01T03:34:37.983Z,6.06
2019-03-01T03:37:13.836Z,6.05
2019-03-01T03:39:49.696Z,6.01
2019-03-01T03:42:25.545Z,5.98
2019-03-01T03:45:01.694Z,5.98
2019-03-01T03:47:38.682Z,5.95
2019-03-01T03:50:15.456Z,5.90
2019-03-01T03:52:51.315Z,5.93
2019-03-01T03:55:27.476Z,5.81
2019-03-01T03:58:03.422Z,5.89
2019-03-01T04:00:39.284Z,5.88
2019-03-01T04:03:15.181Z,5.91
2019-03-01T04:05:50.949Z,5.89
2019-03-01T04:08:26.846Z,5.82
2019-03-01T04:11:02.707Z,5.85
2019-03-01T04:13:38.542Z,5.85
2019-03-01T04:16:14.319Z,5.87
2019-03-01T04:18:50.159Z,5.86
2019-03-01T04:21:26.006Z,5.83
2019-03-01T04:24:01.878Z,5.83
2019-03-01T04:26:37.715Z,5.86
2019-03-01T04:29:13.577Z,5.86
2019-03-01T04:31:50.149Z,5.77
2019-03-01T04:34:25.993Z,5.90
2019-03-01T04:37:01.766Z,5.92
2019-03-01T04:39:37.598Z,5.93
2019-03-01T04:42:13.462Z,5.84
2019-03-01T04:44:49.299Z,5.92
2019-03-01T04:47:25.051Z,5.96
2019-03-01T04:50:00.908Z,5.98
2019-03-01T04:52:36.976Z,5.93
2019-03-01T04:55:18.665Z,5.99
2019-03-01T04:57:54.417Z,6.04
2019-03-01T05:00:30.214Z,6.13
2019-03-01T05:03:06.014Z,6.12
2019-03-01T05:05:41.883Z,6.18
2019-03-01T05:08:18.241Z,6.18
2019-03-01T05:10:54.097Z,6.19
2019-03-01T05:13:29.976Z,6.17
2019-03-01T05:16:06.005Z,6.16
2019-03-01T05:18:41.857Z,6.16
2019-03-01T05:21:17.713Z,6.07
2019-03-01T05:23:53.570Z,6.06
2019-03-01T05:26:29.411Z,6.04
2019-03-01T05:29:05.279Z,5.98
2019-03-01T05:31:41.131Z,5.91
2019-03-01T05:34:16.995Z,5.88
2019-03-01T05:36:53.953Z,5.87
2019-03-01T05:39:29.713Z,5.82
2019-03-01T05:42:05.565Z,5.88
2019-03-01T05:44:41.422Z,5.80
2019-03-01T05:47:17.486Z,5.70
2019-03-01T05:49:53.341Z,5.62
2019-03-01T05:52:30.376Z,5.71
2019-03-01T05:55:08.447Z,5.73
2019-03-01T05:58:21.556Z,5.68
2019-03-01T06:01:03.137Z,5.66
2019-03-01T06:03:44.978Z,5.61
2019-03-01T06:06:41.916Z,5.40
2019-03-01T06:09:32.379Z,5.41
2019-03-01T06:12:36.751Z,5.47
2019-03-01T06:15:33.326Z,5.52
2019-03-01T06:18:29.920Z,5.61
2019-03-01T06:21:08.805Z,5.68
2019-03-01T06:23:56.550Z,5.69
2019-03-01T06:26:50.564Z,5.72
2019-03-01T06:29:29.329Z,5.73
2019-03-01T06:32:24.702Z,5.79
2019-03-01T06:35:18.446Z,5.74
2019-03-01T06:38:16.152Z,5.81
2019-03-01T06:40:56.589Z,5.87
2019-03-01T06:43:38.139Z,5.92
2019-03-01T06:46:22.944Z,5.97
2019-03-01T06:49:02.987Z,5.96
2019-03-01T06:51:38.776Z,5.98
2019-03-01T06:54:14.520Z,6.15
2019-03-01T06:56:50.277Z,6.25
2019-03-01T06:59:26.065Z,6.25
2019-03-01T07:02:02.935Z,6.20
2019-03-01T07:04:38.729Z,6.21
2019-03-01T07:07:14.662Z,6.10
2019-03-01T07:09:50.430Z,6.00
2019-03-01T07:12:26.163Z,5.81
2019-03-01T07:15:01.971Z,5.71
2019-03-01T07:17:39.545Z,5.63
2019-03-01T07:20:15.344Z,5.56
2019-03-01T07:22:51.149Z,5.54
2019-03-01T07:25:26.921Z,5.51
2019-03-01T07:28:02.772Z,5.40
2019-03-01T07:30:38.574Z,5.47
2019-03-01T07:33:14.385Z,5.55
2019-03-01T07:35:50.258Z,5.58
2019-03-01T07:38:25.985Z,5.62
2019-03-01T07:41:01.783Z,5.79
2019-03-01T07:43:37.582Z,5.91
2019-03-01T07:46:13.417Z,6.10
2019-03-01T07:48:49.177Z,6.17
2019-03-01T07:51:26.944Z,6.21
2019-03-01T07:54:02.465Z,6.16
2019-03-01T07:56:39.886Z,6.12
2019-03-01T07:59:15.714Z,6.05
2019-03-01T08:01:51.483Z,6.12
2019-03-01T08:04:28.805Z,6.21
2019-03-01T08:07:05.343Z,6.30
2019-03-01T08:09:44.505Z,6.46
2019-03-01T08:12:18.786Z,6.60
2019-03-01T08:14:54.631Z,6.74
2019-03-01T08:17:31.604Z,6.74
2019-03-01T08:20:13.212Z,6.79
2019-03-01T08:22:49.765Z,6.52
2019-03-01T08:25:25.619Z,6.37
2019-03-01T08:28:01.428Z,6.34
2019-03-01T08:30:37.311Z,6.22
2019-03-01T08:33:13.166Z,6.34
2019-03-01T08:35:48.957Z,6.31
2019-03-01T08:38:25.432Z,6.45
2019-03-01T08:41:02.153Z,6.58
2019-03-01T08:43:37.892Z,6.68
2019-03-01T08:46:13.660Z,6.69
2019-03-01T08:48:49.454Z,6.63
2019-03-01T08:51:26.447Z,6.48
2019-03-01T08:54:02.680Z,6.60
2019-03-01T08:56:38.485Z,6.69
2019-03-01T08:59:17.591Z,6.79
2019-03-01T09:01:51.700Z,6.67
2019-03-01T09:04:27.470Z,6.69
2019-03-01T09:07:03.292Z,6.76
2019-03-01T09:09:39.246Z,6.77
2019-03-01T09:12:15.010Z,6.72
2019-03-01T09:14:50.782Z,6.77
2019-03-01T09:17:26.551Z,6.70
2019-03-01T09:20:02.474Z,6.70
2019-03-01T09:22:38.302Z,6.66
2019-03-01T09:25:15.703Z,6.71
2019-03-01T09:27:51.560Z,6.74
2019-03-01T09:30:27.411Z,6.77
2019-03-01T09:33:03.359Z,6.80
2019-03-01T09:35:43.993Z,6.74
2019-03-01T09:38:19.819Z,6.75
2019-03-01T09:40:57.416Z,6.80
2019-03-01T09:43:33.019Z,6.82
2019-03-01T09:46:08.784Z,6.83
2019-03-01T09:48:45.675Z,6.86
2019-03-01T09:51:22.399Z,6.85
2019-03-01T09:53:58.172Z,6.82
2019-03-01T09:56:33.940Z,6.86
2019-03-01T09:59:09.738Z,6.85
2019-03-01T10:01:46.478Z,6.87
2019-03-01T10:04:22.277Z,6.86
2019-03-01T10:06:58.044Z,6.94
2019-03-01T10:09:34.217Z,7.02
2019-03-01T10:12:09.977Z,7.04
2019-03-01T10:14:45.837Z,7.00
2019-03-01T10:17:57.126Z,7.01
2019-03-01T10:20:36.358Z,7.02
2019-03-01T10:23:12.205Z,7.03
2019-03-01T10:25:48.065Z,7.06
2019-03-01T10:28:24.210Z,7.06
2019-03-01T10:31:00.236Z,7.01
2019-03-01T10:33:36.139Z,7.04
2019-03-01T10:36:12.002Z,7.03
2019-03-01T10:38:47.952Z,7.04
2019-03-01T10:41:23.803Z,7.03
2019-03-01T10:43:59.642Z,7.04
2019-03-01T10:46:35.511Z,7.03
2019-03-01T10:49:11.368Z,7.06
2019-03-01T10:51:47.219Z,7.00
2019-03-01T10:54:23.073Z,6.94
2019-03-01T10:56:58.924Z,6.94
2019-03-01T10:59:34.778Z,6.93
2019-03-01T11:02:11.188Z,6.94
2019-03-01T11:04:46.987Z,6.96
2019-03-01T11:07:22.854Z,6.96
2019-03-01T11:09:59.026Z,6.88
2019-03-01T11:12:35.280Z,6.90
2019-03-01T11:15:12.566Z,6.89
2019-03-01T11:17:48.421Z,6.89
2019-03-01T11:20:24.375Z,6.90
2019-03-01T11:23:00.284Z,6.93
2019-03-01T11:25:36.181Z,6.94
2019-03-01T11:28:12.041Z,6.94
2019-03-01T11:30:47.898Z,6.94
2019-03-01T11:33:24.265Z,7.01
2019-03-01T11:36:00.109Z,7.04
2019-03-01T11:38:35.927Z,6.98
2019-03-01T11:41:11.821Z,6.91
2019-03-01T11:43:48.701Z,6.92
2019-03-01T11:46:24.662Z,6.96
2019-03-01T11:49:00.497Z,7.04
2019-03-01T11:51:36.363Z,6.95
2019-03-01T11:54:13.651Z,6.80
2019-03-01T11:56:50.011Z,6.66
2019-03-01T11:59:25.860Z,6.69
2019-03-01T12:02:03.058Z,6.64
2019-03-01T12:04:39.238Z,6.47
2019-03-01T12:07:15.059Z,6.38
2019-03-01T12:09:51.445Z,6.33
2019-03-01T12:12:27.296Z,6.35
2019-03-01T12:15:03.145Z,6.20
2019-03-01T12:17:39.518Z,6.18
2019-03-01T12:20:21.020Z,6.27
2019-03-01T12:22:56.846Z,6.36
2019-03-01T12:25:32.706Z,6.41
2019-03-01T12:28:08.560Z,6.46
2019-03-01T12:30:44.407Z,6.41
2019-03-01T12:33:20.304Z,6.44
2019-03-01T12:35:56.416Z,6.45
2019-03-01T12:38:32.376Z,6.31
2019-03-01T12:41:08.244Z,6.41
2019-03-01T12:43:44.104Z,6.45
2019-03-01T12:46:19.883Z,6.45
2019-03-01T12:48:55.653Z,6.36
2019-03-01T12:51:31.503Z,6.38
2019-03-01T12:54:07.346Z,6.38
2019-03-01T12:56:43.303Z,6.32
2019-03-01T12:59:19.175Z,6.39
2019-03-01T13:01:54.969Z,6.35
2019-03-01T13:04:30.731Z,6.32
2019-03-01T13:07:06.496Z,6.35
2019-03-01T13:09:42.290Z,6.41
2019-03-01T13:12:19.050Z,6.36
2019-03-01T13:14:54.863Z,6.45
2019-03-01T13:17:33.730Z,6.41
2019-03-01T13:20:13.207Z,6.41
2019-03-01T13:22:49.127Z,6.32
2019-03-01T13:25:25.923Z,6.19
2019-03-01T13:28:02.470Z,6.31
2019-03-01T13:30:38.251Z,6.28
2019-03-01T13:33:19.718Z,6.32
2019-03-01T13:36:03.653Z,6.36
2019-03-01T13:38:37.953Z,6.26
2019-03-01T13:41:13.694Z,6.22
2019-03-01T13:43:49.530Z,6.28
2019-03-01T13:46:26.362Z,6.38
2019-03-01T13:49:02.876Z,6.39
2019-03-01T13:51:38.638Z,6.28
2019-03-01T13:54:14.404Z,6.29
2019-03-01T13:56:50.852Z,6.29
2019-03-01T13:59:27.175Z,6.15
2019-03-01T14:02:04.365Z,6.05
2019-03-01T14:04:41.360Z,6.11
2019-03-01T14:07:17.296Z,6.07
2019-03-01T14:09:53.155Z,6.12
2019-03-01T14:12:28.870Z,6.23
2019-03-01T14:15:07.444Z,6.09
2019-03-01T14:17:43.178Z,6.11
2019-03-01T14:20:21.249Z,6.13
2019-03-01T14:22:57.054Z,6.06
2019-03-01T14:25:32.847Z,5.94
2019-03-01T14:28:08.633Z,5.85
2019-03-01T14:30:44.447Z,5.86
2019-03-01T14:33:20.167Z,5.82
2019-03-01T14:35:55.980Z,5.80
2019-03-01T14:38:31.707Z,5.79
2019-03-01T14:41:07.978Z,5.84
2019-03-01T14:43:43.715Z,5.78
2019-03-01T14:46:20.839Z,5.83
2019-03-01T14:48:57.127Z,5.78
2019-03-01T14:51:32.992Z,5.77
2019-03-01T14:54:09.886Z,5.72
2019-03-01T14:56:47.254Z,5.65
2019-03-01T14:59:26.192Z,5.57
2019-03-01T15:02:20.179Z,5.65
2019-03-01T15:04:56.019Z,5.60
2019-03-01T15:07:31.870Z,5.58
2019-03-01T15:10:11.611Z,5.59
2019-03-01T15:12:47.459Z,5.62
2019-03-01T15:15:26.398Z,5.60
2019-03-01T15:18:00.921Z,5.60
2019-03-01T15:20:37.278Z,5.67
2019-03-01T15:23:15.053Z,5.70
2019-03-01T15:25:50.617Z,5.69
2019-03-01T15:28:26.468Z,5.72
2019-03-01T15:31:02.341Z,5.70
2019-03-01T15:33:38.189Z,5.68
2019-03-01T15:36:18.076Z,5.63
2019-03-01T15:38:51.529Z,5.59
2019-03-01T15:41:28.207Z,5.51
2019-03-01T15:44:04.157Z,5.53
2019-03-01T15:46:40.010Z,5.56
2019-03-01T15:49:16.252Z,5.56
2019-03-01T15:51:52.141Z,5.52
2019-03-01T15:54:28.191Z,5.51
2019-03-01T15:57:04.269Z,5.48
2019-03-01T15:59:44.405Z,5.45
2019-03-01T16:02:19.100Z,5.49
2019-03-01T16:04:54.889Z,5.41
2019-03-01T16:07:32.345Z,5.41
2019-03-01T16:10:18.718Z,5.36
2019-03-01T16:12:54.514Z,5.43
2019-03-01T16:15:30.335Z,5.35
2019-03-01T16:18:06.141Z,5.39
2019-03-01T16:20:41.928Z,5.40
2019-03-01T16:23:17.684Z,5.41
2019-03-01T16:25:56.334Z,5.29
2019-03-01T16:28:32.279Z,5.31
2019-03-01T16:31:08.394Z,5.26
2019-03-01T16:33:44.156Z,5.16
2019-03-01T16:36:23.374Z,5.17
2019-03-01T16:38:59.130Z,5.10
2019-03-01T16:41:35.347Z,5.15
2019-03-01T16:44:11.263Z,5.13
2019-03-01T16:46:47.029Z,5.16
2019-03-01T16:49:23.614Z,5.13
2019-03-01T16:52:00.294Z,5.03
2019-03-01T16:54:36.628Z,5.03
2019-03-01T16:57:15.043Z,5.01
2019-03-01T16:59:49.897Z,4.99
2019-03-01T17:02:25.672Z,5.04
2019-03-01T17:05:03.887Z,5.03
2019-03-01T17:07:39.350Z,5.04
2019-03-01T17:10:18.845Z,5.06
2019-03-01T17:12:54.557Z,5.08
2019-03-01T17:15:30.323Z,5.10
2019-03-01T17:18:11.132Z,5.07
2019-03-01T17:20:44.574Z,5.07
2019-03-01T17:23:20.362Z,4.97
2019-03-01T17:25:56.163Z,4.92
2019-03-01T17:28:32.046Z,4.91
2019-03-01T17:31:07.838Z,4.90
2019-03-01T17:33:45.102Z,4.88
2019-03-01T17:36:21.881Z,4.88
2019-03-01T17:38:57.658Z,4.85
2019-03-01T17:41:33.442Z,4.87
2019-03-01T17:44:09.632Z,4.84
2019-03-01T17:46:45.411Z,4.86
2019-03-01T17:49:21.250Z,4.86
2019-03-01T17:51:57.712Z,4.87
2019-03-01T17:54:33.596Z,4.91
2019-03-01T17:57:09.603Z,4.80
2019-03-01T17:59:48.244Z,4.84
2019-03-01T18:02:22.867Z,4.82
2019-03-01T18:04:58.620Z,4.88
2019-03-01T18:07:34.419Z,4.88
2019-03-01T18:10:12.224Z,4.85
2019-03-01T18:12:48.028Z,4.77
2019-03-01T18:15:23.732Z,4.76
2019-03-01T18:17:59.495Z,4.72
2019-03-01T18:20:37.765Z,4.71
2019-03-01T18:23:12.820Z,4.76
2019-03-01T18:25:48.849Z,4.78
2019-03-01T18:28:28.317Z,4.75
2019-03-01T18:31:02.974Z,4.77
2019-03-01T18:33:38.801Z,4.68
2019-03-01T18:36:14.518Z,4.66
2019-03-01T18:38:50.386Z,4.58
2019-03-01T18:41:27.392Z,4.62
2019-03-01T18:44:03.546Z,4.58
2019-03-01T18:46:39.547Z,4.53
2019-03-01T18:49:16.692Z,4.49
2019-03-01T18:51:53.213Z,4.52
2019-03-01T18:54:29.037Z,4.57
2019-03-01T18:57:04.885Z,4.67
2019-03-01T18:59:40.787Z,4.71
2019-03-01T19:02:16.680Z,4.69
2019-03-01T19:04:54.066Z,4.63
2019-03-01T19:07:29.931Z,4.69
2019-03-01T19:10:08.962Z,4.69
2019-03-01T19:12:48.626Z,4.70
2019-03-01T19:15:22.720Z,4.71
2019-03-01T19:17:58.568Z,4.67
2019-03-01T19:20:49.064Z,4.62
2019-03-01T19:23:25.794Z,4.57
2019-03-01T19:26:02.004Z,4.52
2019-03-01T19:28:37.711Z,4.54
2019-03-01T19:31:13.499Z,4.46
2019-03-01T19:33:49.362Z,4.45
2019-03-01T19:36:25.315Z,4.40
2019-03-01T19:39:01.555Z,4.21
2019-03-01T19:41:39.072Z,4.17
2019-03-01T19:44:15.030Z,4.14
2019-03-01T19:46:51.390Z,4.06
2019-03-01T19:49:28.314Z,3.91
2019-03-01T19:52:04.114Z,3.75
2019-03-01T19:54:40.172Z,3.76
2019-03-01T19:57:16.244Z,3.63
2019-03-01T19:59:51.981Z,3.60
2019-03-01T20:02:30.875Z,3.58
2019-03-01T20:05:08.925Z,3.55
2019-03-01T20:07:44.768Z,3.59
2019-03-01T20:10:20.635Z,3.53
2019-03-01T20:12:56.473Z,3.50
2019-03-01T20:15:32.656Z,3.49
2019-03-01T20:18:09.892Z,3.55
2019-03-01T20:20:46.092Z,3.55
2019-03-01T20:23:21.954Z,3.55
2019-03-01T20:25:57.800Z,3.60
2019-03-01T20:28:33.652Z,3.67
2019-03-01T20:31:09.501Z,3.71
2019-03-01T20:33:45.362Z,3.60
2019-03-01T20:36:21.212Z,3.65
2019-03-01T20:38:59.443Z,3.69
2019-03-01T20:41:35.946Z,3.70
2019-03-01T20:44:14.653Z,3.71
2019-03-01T20:46:50.468Z,3.80
2019-03-01T20:49:26.314Z,3.80
2019-03-01T20:52:03.313Z,3.81
2019-03-01T20:54:39.252Z,3.77
2019-03-01T20:57:15.008Z,3.77
2019-03-01T20:59:51.593Z,3.65
2019-03-01T21:02:27.546Z,3.67
2019-03-01T21:05:03.394Z,3.61
2019-03-01T21:07:39.653Z,3.56
2019-03-01T21:10:20.692Z,3.60
2019-03-01T21:12:56.589Z,3.52
2019-03-01T21:15:34.619Z,3.54
2019-03-01T21:18:10.027Z,3.50
2019-03-01T21:20:45.903Z,3.44
2019-03-01T21:23:21.845Z,3.40
2019-03-01T21:25:57.587Z,3.36
2019-03-01T21:28:33.762Z,3.27
2019-03-01T21:31:11.044Z,3.20
2019-03-01T21:33:46.907Z,3.13
2019-03-01T21:36:25.946Z,3.06
2019-03-01T21:39:01.369Z,3.07
2019-03-01T21:41:41.494Z,3.02
2019-03-01T21:44:16.261Z,3.03
2019-03-01T21:46:51.999Z,3.03
2019-03-01T21:49:27.806Z,3.08
2019-03-01T21:52:03.603Z,3.09
2019-03-01T21:54:39.472Z,3.09
2019-03-01T21:57:15.210Z,3.11
2019-03-01T21:59:52.512Z,3.12
2019-03-01T22:02:28.453Z,3.14
2019-03-01T22:05:13.628Z,3.14
2019-03-01T22:07:51.642Z,3.09
2019-03-01T22:10:27.484Z,3.08
2019-03-01T22:13:03.353Z,3.03
2019-03-01T22:15:39.336Z,3.01
2019-03-01T22:18:15.160Z,3.02
2019-03-01T22:20:50.921Z,2.97
2019-03-01T22:23:26.650Z,2.95
2019-03-01T22:26:02.504Z,2.85
2019-03-01T22:28:38.216Z,2.80
2019-03-01T22:31:14.020Z,2.73
2019-03-01T22:33:52.562Z,2.66
2019-03-01T22:36:27.251Z,2.55
2019-03-01T22:39:03.115Z,2.52
2019-03-01T22:41:40.614Z,2.48
2019-03-01T22:44:16.460Z,2.46
2019-03-01T22:46:52.310Z,2.42
2019-03-01T22:49:31.744Z,2.43
2019-03-01T22:52:07.309Z,2.47
2019-03-01T22:54:43.144Z,2.52
2019-03-01T22:57:22.463Z,2.58
2019-03-01T22:59:56.700Z,2.68
2019-03-01T23:02:33.239Z,2.77
2019-03-01T23:05:09.848Z,2.81
2019-03-01T23:07:45.706Z,2.88
2019-03-01T23:10:22.330Z,2.86
2019-03-01T23:12:58.332Z,2.79
2019-03-01T23:15:34.190Z,2.75
2019-03-01T23:18:10.038Z,2.66
2019-03-01T23:20:45.884Z,2.59
2019-03-01T23:23:24.008Z,2.45
2019-03-01T23:25:59.341Z,2.36
2019-03-01T23:28:35.505Z,2.21
2019-03-01T23:31:11.681Z,2.15
2019-03-01T23:33:47.516Z,2.05
2019-03-01T23:36:24.864Z,1.95
2019-03-01T23:39:01.073Z,1.88
2019-03-01T23:41:38.448Z,1.86
2019-03-01T23:44:15.434Z,1.86
2019-03-01T23:46:51.300Z,1.86
2019-03-01T23:49:27.151Z,1.79
2019-03-01T23:52:03.001Z,1.76
2019-03-01T23:54:40.628Z,1.76
2019-03-01T23:57:16.354Z,1.68
2019-03-01T23:59:52.210Z,1.65
